This is the latest recevied weather packets stored in our database for station/object DL1VED. If no packets are shown the sender has not sent any weather packets the latest 10 day(s).
| Time | Temp. | Humidity | Pressure | Rain* | Wind** | Luminosity | Snow |
|---|---|---|---|---|---|---|---|
| 1778236144 | 18.89° C | 43% | 1016.9 hPa | 0 mm | - | - | - |
| 1778235244 | 17.78° C | 52% | 1017 hPa | 0 mm | - | - | - |
| 1778234344 | 17.22° C | 53% | 1017 hPa | 0 mm | - | - | - |
| 1778233444 | 18.33° C | 51% | 1017.1 hPa | 0 mm | - | - | - |
| 1778232544 | 18.33° C | 50% | 1017.2 hPa | 0 mm | - | - | - |
| 1778231644 | 17.78° C | 53% | 1017.2 hPa | 0 mm | - | - | - |
| 1778230744 | 17.22° C | 57% | 1017.1 hPa | 0 mm | - | - | - |
| 1778229844 | 16.67° C | 58% | 1017.2 hPa | 0 mm | - | - | - |
| 1778228944 | 16.67° C | 61% | 1017.2 hPa | 0 mm | - | - | - |
| 1778228044 | 16.11° C | 65% | 1017.2 hPa | 0 mm | - | - | - |
| 1778227144 | 15° C | 70% | 1017.1 hPa | 0 mm | - | - | - |
| 1778226244 | 13.89° C | 72% | 1017.2 hPa | 0 mm | - | - | - |
| 1778225344 | 13.33° C | 75% | 1017.2 hPa | 0 mm | - | - | - |
| 1778224444 | 12.22° C | 79% | 1017.2 hPa | 0 mm | - | - | - |
| 1778223544 | 12.22° C | 77% | 1017.1 hPa | 0 mm | - | - | - |
| 1778222644 | 11.67° C | 79% | 1016.9 hPa | 0 mm | - | - | - |
| 1778221744 | 12.22° C | 78% | 1016.9 hPa | 0 mm | - | - | - |
| 1778220844 | 11.67° C | 80% | 1016.9 hPa | 0 mm | - | - | - |
| 1778219944 | 11.11° C | 81% | 1016.9 hPa | 0 mm | - | - | - |
| 1778219044 | 11.11° C | 80% | 1016.7 hPa | 0 mm | - | - | - |
| 1778218144 | 11.67° C | 78% | 1016.6 hPa | 0 mm | - | - | - |
| 1778217244 | 12.78° C | 77% | 1016.5 hPa | 0 mm | - | - | - |
| 1778216344 | 12.22° C | 78% | 1016.4 hPa | 0 mm | - | - | - |
| 1778215444 | 11.11° C | 82% | 1016.4 hPa | 0 mm | - | - | - |
| 1778214544 | 10.56° C | 83% | 1016.3 hPa | 0 mm | - | - | - |
* Rain latest hour (hover to see other rain measurements)
** Current wind speed in m/s (hover to see current wind gust speed)